Time;durP1;ratioP1;P1;durP2;ratioP2;P2;SDS_P1;SDS_P2;PMS_P1;PMS_P2;Temp;Humidity;BMP_temperature;BMP_pressure;BME280_temperature;BME280_humidity;BME280_pressure;Samples;Min_cycle;Max_cycle;Signal;HPM_P1;HPM_P2
2022/11/28 00:01:40;;;;;;;;;;;3.80;99.90;;;;;;5036110;28;19928;-71
2022/11/28 00:04:09;;;;;;;;;;;3.80;99.90;;;;;;5034147;28;20315;-71
2022/11/28 00:06:37;;;;;;;;;;;3.80;99.90;;;;;;5032710;28;19932;-72
2022/11/28 00:09:07;;;;;;;;;;;3.80;99.90;;;;;;5033560;28;20378;-71
2022/11/28 00:11:38;;;;;;;;;;;3.80;99.90;;;;;;5026090;28;20105;-70
2022/11/28 00:14:09;;;;;;;;;;;3.80;99.90;;;;;;5021331;28;20395;-71
2022/11/28 00:16:39;;;;;;;;;;;3.80;99.90;;;;;;5037381;28;20059;-70
2022/11/28 00:19:06;;;;;;;;;;;3.80;99.90;;;;;;5029670;28;20089;-71
2022/11/28 00:21:36;;;;;;;;;;;3.80;99.90;;;;;;5034031;28;20327;-71
2022/11/28 00:24:06;;;;;;;;;;;3.80;99.90;;;;;;5031055;28;20149;-71
2022/11/28 00:26:48;;;;;;;;;;;3.80;99.90;;;;;;5035868;28;20496;-71
2022/11/28 00:29:15;;;;;;;;;;;3.80;99.90;;;;;;5022645;28;19928;-71
2022/11/28 00:31:44;;;;;;;;;;;3.70;99.90;;;;;;5027796;28;22686;-71
2022/11/28 00:34:25;;;;;;;;;;;3.70;99.90;;;;;;5035164;28;20170;-71
2022/11/28 00:36:52;;;;;;;;;;;3.70;99.90;;;;;;5028311;28;20193;-71
2022/11/28 00:39:26;;;;;;;;;;;3.80;99.90;;;;;;5025838;28;19932;-71
2022/11/28 00:41:58;;;;;;;;;;;3.80;99.90;;;;;;5026765;28;20310;-71
2022/11/28 00:44:24;;;;;;;;;;;3.80;99.90;;;;;;5028893;28;20101;-72
2022/11/28 00:46:53;;;;;;;;;;;3.80;99.90;;;;;;5026316;28;20222;-71
2022/11/28 00:49:20;;;;;;;;;;;3.80;99.90;;;;;;5027568;28;19928;-72
2022/11/28 00:51:54;;;;;;;;;;;3.70;99.90;;;;;;5040108;28;20681;-71
2022/11/28 00:54:21;;;;;;;;;;;3.70;99.90;;;;;;5034986;28;20153;-71
2022/11/28 00:56:48;;;;;;;;;;;3.70;99.90;;;;;;5028125;28;20047;-71
2022/11/28 00:59:18;;;;;;;;;;;3.70;99.90;;;;;;5029602;28;20286;-72
2022/11/28 01:01:49;;;;;;;;;;;3.70;99.90;;;;;;5028184;28;20879;-71
2022/11/28 01:04:16;;;;;;;;;;;3.70;99.90;;;;;;5030781;28;20133;-71
2022/11/28 01:06:47;;;;;;;;;;;3.70;99.90;;;;;;5030369;28;19928;-71
2022/11/28 01:09:21;;;;;;;;;;;3.70;99.90;;;;;;5018515;28;20205;-71
2022/11/28 01:11:52;;;;;;;;;;;3.70;99.90;;;;;;5056903;27;20279;-72
2022/11/28 01:14:27;;;;;;;;;;;3.70;99.90;;;;;;5038498;28;20438;-71
2022/11/28 01:16:55;;;;;;;;;;;3.70;99.90;;;;;;5025562;28;20490;-71
2022/11/28 01:19:22;;;;;;;;;;;3.70;99.90;;;;;;5025331;28;19928;-71
2022/11/28 01:21:52;;;;;;;;;;;3.70;99.90;;;;;;5029245;28;20035;-71
2022/11/28 01:24:19;;;;;;;;;;;3.70;99.90;;;;;;5028643;28;20015;-71
2022/11/28 01:26:46;;;;;;;;;;;3.70;99.90;;;;;;5028206;28;20798;-69
2022/11/28 01:29:13;;;;;;;;;;;3.70;99.90;;;;;;5060815;27;20473;-71
2022/11/28 01:31:42;;;;;;;;;;;3.70;99.90;;;;;;5023145;28;20513;-70
2022/11/28 01:34:08;;;;;;;;;;;3.80;99.90;;;;;;5032864;28;19993;-70
2022/11/28 01:36:40;;;;;;;;;;;3.70;99.90;;;;;;5033264;28;19935;-71
2022/11/28 01:39:09;;;;;;;;;;;3.70;99.90;;;;;;5030366;28;20079;-72
2022/11/28 01:41:36;;;;;;;;;;;3.60;99.90;;;;;;5020755;28;19925;-70
2022/11/28 01:44:08;;;;;;;;;;;3.70;99.90;;;;;;5031780;28;19932;-71
2022/11/28 01:46:38;;;;;;;;;;;3.70;99.90;;;;;;5027243;28;20469;-71
2022/11/28 01:49:17;;;;;;;;;;;3.70;99.90;;;;;;5033850;28;20551;-70
2022/11/28 01:51:46;;;;;;;;;;;3.70;99.90;;;;;;5020819;28;19932;-69
2022/11/28 01:54:14;;;;;;;;;;;3.70;99.90;;;;;;5026894;28;20036;-70
2022/11/28 01:56:50;;;;;;;;;;;3.70;99.90;;;;;;5033197;28;20070;-70
2022/11/28 01:59:25;;;;;;;;;;;3.70;99.90;;;;;;5027927;28;20143;-70
2022/11/28 02:01:52;;;;;;;;;;;3.70;99.90;;;;;;5013461;28;20029;-71
2022/11/28 02:04:20;;;;;;;;;;;3.70;99.90;;;;;;5032061;28;20021;-70
2022/11/28 02:06:51;;;;;;;;;;;3.70;99.90;;;;;;5026820;28;20037;-71
2022/11/28 02:09:21;;;;;;;;;;;3.70;99.90;;;;;;5029445;28;19932;-71
2022/11/28 02:12:18;;;;;;;;;;;3.70;99.90;;;;;;5053657;27;19929;-70
2022/11/28 02:14:55;;;;;;;;;;;3.70;99.90;;;;;;5007307;28;19935;-70
2022/11/28 02:17:31;;;;;;;;;;;3.70;99.90;;;;;;5055283;28;20210;-70
2022/11/28 02:20:22;;;;;;;;;;;3.70;99.90;;;;;;5032290;28;20449;-71
2022/11/28 02:22:59;;;;;;;;;;;3.70;99.90;;;;;;5025052;28;19978;-71
2022/11/28 02:25:44;;;;;;;;;;;3.70;99.90;;;;;;5024591;28;20296;-70
2022/11/28 02:28:28;;;;;;;;;;;3.70;99.90;;;;;;5026865;28;19936;-71
2022/11/28 02:31:04;;;;;;;;;;;3.70;99.90;;;;;;5022895;28;19935;-70
2022/11/28 02:33:33;;;;;;;;;;;3.70;99.90;;;;;;5041587;28;20379;-70
2022/11/28 02:36:03;;;;;;;;;;;3.70;99.90;;;;;;5052647;28;20375;-70
2022/11/28 02:38:39;;;;;;;;;;;3.70;99.90;;;;;;5071329;28;19932;-70
2022/11/28 02:41:07;;;;;;;;;;;3.70;99.90;;;;;;5027097;28;20136;-70
2022/11/28 02:43:39;;;;;;;;;;;3.70;99.90;;;;;;5025163;28;20011;-71
2022/11/28 02:46:12;;;;;;;;;;;3.70;99.90;;;;;;5032324;28;19928;-71
2022/11/28 02:48:47;;;;;;;;;;;3.70;99.90;;;;;;5029311;28;19935;-70
2022/11/28 02:51:17;;;;;;;;;;;3.70;99.90;;;;;;5031404;28;20026;-70
2022/11/28 02:53:45;;;;;;;;;;;3.70;99.90;;;;;;5036564;28;20326;-71
2022/11/28 02:56:12;;;;;;;;;;;3.70;99.90;;;;;;5026489;28;19932;-71
2022/11/28 02:58:39;;;;;;;;;;;3.70;99.90;;;;;;5029846;28;20112;-71
2022/11/28 03:01:07;;;;;;;;;;;3.70;99.90;;;;;;5033815;28;19935;-70
2022/11/28 03:04:05;;;;;;;;;;;3.70;99.90;;;;;;5026250;28;20330;-71
2022/11/28 03:06:37;;;;;;;;;;;3.70;99.90;;;;;;5032494;28;20191;-70
2022/11/28 03:09:15;;;;;;;;;;;3.70;99.90;;;;;;5028232;28;19933;-71
2022/11/28 03:11:49;;;;;;;;;;;3.70;99.90;;;;;;5032423;28;20031;-70
2022/11/28 03:14:28;;;;;;;;;;;3.70;99.90;;;;;;5031663;28;20200;-71
2022/11/28 03:17:01;;;;;;;;;;;3.70;99.90;;;;;;5025691;28;19929;-71
2022/11/28 03:19:30;;;;;;;;;;;3.70;99.90;;;;;;5027551;28;20396;-70
2022/11/28 03:22:05;;;;;;;;;;;3.70;99.90;;;;;;5029504;28;20237;-70
2022/11/28 03:24:35;;;;;;;;;;;3.70;99.90;;;;;;5031672;28;20317;-70
2022/11/28 03:27:05;;;;;;;;;;;3.70;99.90;;;;;;5033331;28;19928;-71
2022/11/28 03:29:36;;;;;;;;;;;3.70;99.90;;;;;;5032681;28;19933;-71
2022/11/28 03:32:17;;;;;;;;;;;3.70;99.90;;;;;;5029063;28;20106;-73
2022/11/28 03:34:52;;;;;;;;;;;3.70;99.90;;;;;;5032719;28;20159;-70
2022/11/28 03:37:23;;;;;;;;;;;3.70;99.90;;;;;;5026293;28;20497;-71
2022/11/28 03:39:53;;;;;;;;;;;3.70;99.90;;;;;;5028280;28;20515;-71
2022/11/28 03:42:21;;;;;;;;;;;3.70;99.90;;;;;;5026405;28;20102;-70
2022/11/28 03:44:54;;;;;;;;;;;3.70;99.90;;;;;;5029242;28;19932;-71
2022/11/28 03:47:28;;;;;;;;;;;3.70;99.90;;;;;;5036722;28;20512;-70
2022/11/28 03:49:59;;;;;;;;;;;3.70;99.90;;;;;;5040055;28;20096;-70
2022/11/28 03:52:32;;;;;;;;;;;3.70;99.90;;;;;;5055376;27;19932;-70
2022/11/28 03:55:05;;;;;;;;;;;3.70;99.90;;;;;;5066145;27;20471;-70
2022/11/28 03:57:34;;;;;;;;;;;3.70;99.90;;;;;;5043197;28;19971;-71
2022/11/28 04:00:05;;;;;;;;;;;3.70;99.90;;;;;;5038275;28;19975;-70
2022/11/28 04:02:40;;;;;;;;;;;3.70;99.90;;;;;;5030035;28;20250;-72
2022/11/28 04:05:17;;;;;;;;;;;3.70;99.90;;;;;;5037971;28;19990;-70
2022/11/28 04:07:56;;;;;;;;;;;3.70;99.90;;;;;;5030145;28;20163;-70
2022/11/28 04:10:30;;;;;;;;;;;3.70;99.90;;;;;;5026522;28;20486;-70
2022/11/28 04:13:10;;;;;;;;;;;3.60;99.90;;;;;;5028196;28;20514;-71
2022/11/28 04:15:45;;;;;;;;;;;3.70;99.90;;;;;;5033345;28;19983;-70
2022/11/28 04:18:24;;;;;;;;;;;3.60;99.90;;;;;;5026991;28;20619;-70
2022/11/28 04:21:03;;;;;;;;;;;3.60;99.90;;;;;;5030853;28;19936;-71
2022/11/28 04:23:35;;;;;;;;;;;3.70;99.90;;;;;;5031369;28;20100;-70
2022/11/28 04:26:04;;;;;;;;;;;3.60;99.90;;;;;;5027134;28;20217;-70
2022/11/28 04:28:39;;;;;;;;;;;3.70;99.90;;;;;;5029131;28;20101;-71
2022/11/28 04:31:09;;;;;;;;;;;3.70;99.90;;;;;;5029361;28;19951;-70
2022/11/28 04:33:41;;;;;;;;;;;3.70;99.90;;;;;;5027695;28;19928;-71
2022/11/28 04:36:10;;;;;;;;;;;3.70;99.90;;;;;;5037458;28;20033;-71
2022/11/28 04:38:53;;;;;;;;;;;3.60;99.90;;;;;;5026567;28;20175;-71
2022/11/28 04:41:22;;;;;;;;;;;3.70;99.90;;;;;;5027148;28;19955;-69
2022/11/28 04:43:56;;;;;;;;;;;3.70;99.90;;;;;;5033731;28;19963;-70
2022/11/28 04:46:27;;;;;;;;;;;3.70;99.90;;;;;;5030326;28;20863;-71
2022/11/28 04:48:54;;;;;;;;;;;3.70;99.90;;;;;;5033875;28;19936;-68
2022/11/28 04:51:45;;;;;;;;;;;3.70;99.90;;;;;;5025842;28;20519;-69
2022/11/28 04:54:17;;;;;;;;;;;3.60;99.90;;;;;;5031265;28;19989;-69
2022/11/28 04:56:45;;;;;;;;;;;3.60;99.90;;;;;;5030973;28;20125;-71
2022/11/28 04:59:25;;;;;;;;;;;3.70;99.90;;;;;;5035766;28;20762;-69
2022/11/28 05:01:53;;;;;;;;;;;3.70;99.90;;;;;;5023863;28;20035;-68
2022/11/28 05:04:21;;;;;;;;;;;3.60;99.90;;;;;;5022259;28;20020;-71
2022/11/28 05:06:49;;;;;;;;;;;3.70;99.90;;;;;;5022849;28;20054;-68
2022/11/28 05:09:17;;;;;;;;;;;3.70;99.90;;;;;;5024282;28;20483;-68
2022/11/28 05:11:53;;;;;;;;;;;3.70;99.90;;;;;;5030780;28;20179;-68
2022/11/28 05:14:21;;;;;;;;;;;3.70;99.90;;;;;;5028521;28;20313;-68
2022/11/28 05:16:48;;;;;;;;;;;3.70;99.90;;;;;;5027794;28;20234;-68
2022/11/28 05:19:18;;;;;;;;;;;3.70;99.90;;;;;;5017556;28;20211;-68
2022/11/28 05:21:45;;;;;;;;;;;3.70;99.90;;;;;;5027557;28;19929;-68
2022/11/28 05:24:14;;;;;;;;;;;3.60;99.90;;;;;;5030065;28;20216;-68
2022/11/28 05:26:43;;;;;;;;;;;3.60;99.90;;;;;;5032781;28;19929;-69
2022/11/28 05:29:09;;;;;;;;;;;3.60;99.90;;;;;;5025899;28;20226;-68
2022/11/28 05:31:37;;;;;;;;;;;3.60;99.90;;;;;;5023057;28;19935;-68
2022/11/28 05:34:04;;;;;;;;;;;3.70;99.90;;;;;;5032972;28;20434;-68
2022/11/28 05:36:31;;;;;;;;;;;3.70;99.90;;;;;;5027957;28;20009;-68
2022/11/28 05:38:59;;;;;;;;;;;3.60;99.90;;;;;;5028462;28;20657;-68
2022/11/28 05:41:32;;;;;;;;;;;3.70;99.90;;;;;;5028778;28;20540;-72
2022/11/28 05:44:01;;;;;;;;;;;3.70;99.90;;;;;;5038289;28;20386;-76
2022/11/28 05:46:35;;;;;;;;;;;3.70;99.90;;;;;;5026414;28;20540;-73
2022/11/28 05:49:06;;;;;;;;;;;3.70;99.90;;;;;;5027793;28;19936;-72
2022/11/28 05:51:36;;;;;;;;;;;3.70;99.90;;;;;;5030800;28;20263;-70
2022/11/28 05:54:03;;;;;;;;;;;3.70;99.90;;;;;;5025439;28;20662;-69
2022/11/28 05:56:37;;;;;;;;;;;3.70;99.90;;;;;;5022885;28;20083;-70
2022/11/28 05:59:06;;;;;;;;;;;3.70;99.90;;;;;;5028800;28;20126;-70
2022/11/28 06:01:42;;;;;;;;;;;3.70;99.90;;;;;;5026683;28;20404;-73
2022/11/28 06:04:12;;;;;;;;;;;3.60;99.90;;;;;;5028249;28;20421;-71
2022/11/28 06:06:39;;;;;;;;;;;3.70;99.90;;;;;;5044171;28;19928;-71
2022/11/28 06:09:12;;;;;;;;;;;3.70;99.90;;;;;;5022740;28;20143;-70
2022/11/28 06:11:43;;;;;;;;;;;3.70;99.90;;;;;;5022215;28;20142;-71
2022/11/28 06:14:11;;;;;;;;;;;3.70;99.90;;;;;;5026956;28;20674;-71
2022/11/28 06:16:38;;;;;;;;;;;3.70;99.90;;;;;;5026438;28;20462;-69
2022/11/28 06:19:11;;;;;;;;;;;3.60;99.90;;;;;;5021964;28;20730;-69
2022/11/28 06:21:41;;;;;;;;;;;3.60;99.90;;;;;;5027792;28;20638;-70
2022/11/28 06:24:09;;;;;;;;;;;3.60;99.90;;;;;;5028249;28;20075;-71
2022/11/28 06:26:36;;;;;;;;;;;3.60;99.90;;;;;;5030109;28;20006;-75
2022/11/28 06:29:07;;;;;;;;;;;3.60;99.90;;;;;;5026306;28;20080;-69
2022/11/28 06:31:39;;;;;;;;;;;3.60;99.90;;;;;;5025440;28;20143;-68
2022/11/28 06:34:12;;;;;;;;;;;3.60;99.90;;;;;;5038809;28;20284;-69
2022/11/28 06:36:44;;;;;;;;;;;3.60;99.90;;;;;;5032726;28;20068;-68
2022/11/28 06:39:15;;;;;;;;;;;3.60;99.90;;;;;;5030778;28;19994;-69
2022/11/28 06:41:48;;;;;;;;;;;3.60;99.90;;;;;;5031511;28;20204;-69
2022/11/28 06:44:20;;;;;;;;;;;3.60;99.90;;;;;;5025173;28;20022;-69
2022/11/28 06:46:49;;;;;;;;;;;3.60;99.90;;;;;;5038349;28;20073;-69
2022/11/28 06:49:16;;;;;;;;;;;3.60;99.90;;;;;;5030323;28;19928;-69
2022/11/28 06:51:46;;;;;;;;;;;3.60;99.90;;;;;;5036243;28;19939;-72
2022/11/28 06:54:19;;;;;;;;;;;3.60;99.90;;;;;;5030742;28;19934;-70
2022/11/28 06:56:49;;;;;;;;;;;3.60;99.90;;;;;;5037778;28;20140;-69
2022/11/28 06:59:20;;;;;;;;;;;3.60;99.90;;;;;;5029864;28;20139;-69
2022/11/28 07:01:49;;;;;;;;;;;3.60;99.90;;;;;;5034009;28;19955;-69
2022/11/28 07:04:18;;;;;;;;;;;3.60;99.90;;;;;;5064046;27;20395;-70
2022/11/28 07:06:51;;;;;;;;;;;3.60;99.90;;;;;;5037281;28;20556;-70
2022/11/28 07:09:21;;;;;;;;;;;3.50;99.90;;;;;;5037536;28;20775;-69
2022/11/28 07:11:50;;;;;;;;;;;3.60;99.90;;;;;;5033589;28;20309;-69
2022/11/28 07:14:17;;;;;;;;;;;3.60;99.90;;;;;;5045987;28;19935;-69
2022/11/28 07:16:43;;;;;;;;;;;3.60;99.90;;;;;;5036796;28;20081;-69
2022/11/28 07:19:15;;;;;;;;;;;3.60;99.90;;;;;;5040769;28;20112;-70
2022/11/28 07:21:44;;;;;;;;;;;3.60;99.90;;;;;;5036235;28;19929;-70
2022/11/28 07:24:14;;;;;;;;;;;3.60;99.90;;;;;;5030976;28;20356;-69
2022/11/28 07:26:40;;;;;;;;;;;3.60;99.90;;;;;;5036392;28;19932;-69
2022/11/28 07:29:13;;;;;;;;;;;3.60;99.90;;;;;;5037811;28;20242;-69
2022/11/28 07:31:47;;;;;;;;;;;3.60;99.90;;;;;;5033360;28;19928;-69
2022/11/28 07:34:20;;;;;;;;;;;3.60;99.90;;;;;;5040531;28;19928;-69
2022/11/28 07:36:59;;;;;;;;;;;3.60;99.90;;;;;;5034734;28;20017;-69
2022/11/28 07:39:29;;;;;;;;;;;3.60;99.90;;;;;;5025092;28;20161;-69
2022/11/28 07:41:57;;;;;;;;;;;3.60;99.90;;;;;;5032538;28;19928;-69
2022/11/28 07:44:27;;;;;;;;;;;3.70;99.90;;;;;;5033324;28;20122;-69
2022/11/28 07:46:54;;;;;;;;;;;3.60;99.90;;;;;;5028897;28;20104;-70
2022/11/28 07:49:29;;;;;;;;;;;3.70;99.90;;;;;;5033336;28;19928;-70
2022/11/28 07:51:56;;;;;;;;;;;3.70;99.90;;;;;;5037132;28;20448;-70
2022/11/28 07:54:23;;;;;;;;;;;3.60;99.90;;;;;;5037157;28;20111;-70
2022/11/28 07:56:51;;;;;;;;;;;3.70;99.90;;;;;;5036818;28;19968;-71
2022/11/28 07:59:21;;;;;;;;;;;3.70;99.90;;;;;;5059576;27;20046;-71
2022/11/28 08:01:52;;;;;;;;;;;3.70;99.90;;;;;;5029355;28;19932;-73
2022/11/28 08:04:32;;;;;;;;;;;3.70;99.90;;;;;;5028275;28;20257;-70
2022/11/28 08:07:01;;;;;;;;;;;3.60;99.90;;;;;;5057667;28;19929;-71
2022/11/28 08:09:27;;;;;;;;;;;3.70;99.90;;;;;;5027764;28;20592;-70
2022/11/28 08:11:55;;;;;;;;;;;3.60;99.90;;;;;;5037323;28;20047;-70
2022/11/28 08:14:26;;;;;;;;;;;3.70;99.90;;;;;;5044333;28;19936;-70
2022/11/28 08:16:56;;;;;;;;;;;3.70;99.90;;;;;;5039181;28;20136;-71
2022/11/28 08:19:26;;;;;;;;;;;3.70;99.90;;;;;;5027854;28;20146;-70
2022/11/28 08:21:53;;;;;;;;;;;3.70;99.90;;;;;;5039875;28;19936;-70
2022/11/28 08:24:33;;;;;;;;;;;3.70;99.90;;;;;;5067369;27;20390;-70
2022/11/28 08:27:03;;;;;;;;;;;3.60;99.90;;;;;;5039224;28;20066;-71
2022/11/28 08:29:32;;;;;;;;;;;3.70;99.90;;;;;;5025703;28;20338;-71
2022/11/28 08:32:09;;;;;;;;;;;;;;;;;;;;;
2022/11/28 08:34:40;;;;;;;;;;;3.70;99.90;;;;;;5042546;28;19928;-70
2022/11/28 08:37:11;;;;;;;;;;;3.70;99.90;;;;;;5033570;28;20547;-72
2022/11/28 08:39:40;;;;;;;;;;;3.70;99.90;;;;;;5030242;28;20434;-70
2022/11/28 08:42:08;;;;;;;;;;;3.70;99.90;;;;;;5034885;28;19928;-71
2022/11/28 08:44:39;;;;;;;;;;;3.70;99.90;;;;;;5024245;28;20546;-71
2022/11/28 08:47:13;;;;;;;;;;;3.70;99.90;;;;;;5073004;27;20047;-70
2022/11/28 08:49:40;;;;;;;;;;;3.70;99.90;;;;;;5033769;28;20223;-70
2022/11/28 08:52:12;;;;;;;;;;;3.70;99.90;;;;;;5027802;28;20189;-71
2022/11/28 08:54:42;;;;;;;;;;;3.70;99.90;;;;;;5033370;28;20415;-70
2022/11/28 08:57:19;;;;;;;;;;;3.70;99.90;;;;;;5038025;28;19942;-71
2022/11/28 08:59:48;;;;;;;;;;;3.70;99.90;;;;;;5025932;28;20456;-70
2022/11/28 09:02:18;;;;;;;;;;;3.70;99.90;;;;;;5031324;28;20250;-70
2022/11/28 09:04:48;;;;;;;;;;;3.70;99.90;;;;;;5041725;28;20705;-70
2022/11/28 09:07:17;;;;;;;;;;;3.70;99.90;;;;;;5024020;28;19948;-70
2022/11/28 09:09:47;;;;;;;;;;;3.70;99.90;;;;;;5028638;28;20045;-73
2022/11/28 09:12:15;;;;;;;;;;;3.70;99.90;;;;;;5042002;28;20010;-70
2022/11/28 09:14:45;;;;;;;;;;;3.70;99.90;;;;;;5033798;28;20432;-71
2022/11/28 09:17:15;;;;;;;;;;;3.70;99.90;;;;;;5033437;28;20339;-70
2022/11/28 09:19:42;;;;;;;;;;;3.70;99.90;;;;;;5025348;28;19934;-73
2022/11/28 09:22:18;;;;;;;;;;;3.70;99.90;;;;;;5030699;28;20709;-70
2022/11/28 09:24:46;;;;;;;;;;;3.70;99.90;;;;;;5068128;27;19956;-70
2022/11/28 09:27:15;;;;;;;;;;;3.70;99.90;;;;;;5038587;28;20078;-71
2022/11/28 09:29:47;;;;;;;;;;;3.70;99.90;;;;;;5024312;28;20149;-70
2022/11/28 09:32:16;;;;;;;;;;;3.70;99.90;;;;;;5038208;28;20582;-70
2022/11/28 09:34:44;;;;;;;;;;;3.70;99.90;;;;;;5031377;28;19936;-70
2022/11/28 09:37:18;;;;;;;;;;;3.80;99.90;;;;;;5032269;28;19998;-71
2022/11/28 09:39:53;;;;;;;;;;;3.80;99.90;;;;;;5024136;28;19987;-70
2022/11/28 09:42:25;;;;;;;;;;;3.80;99.90;;;;;;5034153;28;20059;-70
2022/11/28 09:44:53;;;;;;;;;;;3.80;99.90;;;;;;5035880;28;19928;-71
2022/11/28 09:47:23;;;;;;;;;;;3.80;99.90;;;;;;5037616;28;20464;-70
2022/11/28 09:49:52;;;;;;;;;;;3.80;99.90;;;;;;5023667;28;19928;-70
2022/11/28 09:52:24;;;;;;;;;;;3.80;99.90;;;;;;5034999;28;19929;-70
2022/11/28 09:55:03;;;;;;;;;;;3.80;99.90;;;;;;5039035;28;20030;-70
2022/11/28 09:57:32;;;;;;;;;;;3.80;99.90;;;;;;5029865;28;19932;-70
2022/11/28 10:00:03;;;;;;;;;;;3.80;99.90;;;;;;5028821;28;19932;-70
2022/11/28 10:02:42;;;;;;;;;;;3.80;99.90;;;;;;5031533;28;20027;-70
2022/11/28 10:05:16;;;;;;;;;;;3.80;99.90;;;;;;5038199;28;19935;-70
2022/11/28 10:07:51;;;;;;;;;;;3.80;99.90;;;;;;5028065;28;19932;-70
2022/11/28 10:10:23;;;;;;;;;;;3.80;99.90;;;;;;5031608;28;20147;-70
2022/11/28 10:12:59;;;;;;;;;;;3.90;99.90;;;;;;5034835;28;19955;-70
2022/11/28 10:15:31;;;;;;;;;;;3.90;99.90;;;;;;5043001;28;20085;-70
2022/11/28 10:18:07;;;;;;;;;;;3.90;99.90;;;;;;5037559;28;20118;-69
2022/11/28 10:20:44;;;;;;;;;;;3.90;99.90;;;;;;5034455;28;19932;-71
2022/11/28 10:23:24;;;;;;;;;;;3.90;99.90;;;;;;5041382;28;20187;-70
2022/11/28 10:25:55;;;;;;;;;;;3.90;99.90;;;;;;5038470;28;20657;-70
2022/11/28 10:28:23;;;;;;;;;;;3.90;99.90;;;;;;5034117;28;20088;-70
2022/11/28 10:33:50;;;;;;;;;;;3.90;99.90;;;;;;5041843;28;19928;-70
2022/11/28 10:36:22;;;;;;;;;;;4.00;99.90;;;;;;5036710;28;19939;-69
2022/11/28 10:38:50;;;;;;;;;;;4.00;99.90;;;;;;5034552;28;19933;-69
2022/11/28 10:41:20;;;;;;;;;;;3.90;99.90;;;;;;5034257;28;19928;-69
2022/11/28 10:43:53;;;;;;;;;;;4.00;99.90;;;;;;5045912;28;20578;-69
2022/11/28 10:46:35;;;;;;;;;;;3.90;99.90;;;;;;5034298;28;19936;-69
2022/11/28 10:49:08;;;;;;;;;;;4.00;99.90;;;;;;5031119;28;19932;-69
2022/11/28 10:51:43;;;;;;;;;;;4.00;99.90;;;;;;5039239;28;20364;-69
2022/11/28 10:54:17;;;;;;;;;;;4.00;99.90;;;;;;5037572;28;20461;-69
2022/11/28 10:56:51;;;;;;;;;;;4.00;99.90;;;;;;5033398;28;20158;-69
2022/11/28 10:59:27;;;;;;;;;;;4.00;99.90;;;;;;5025970;28;19940;-69
2022/11/28 11:01:53;;;;;;;;;;;4.10;99.90;;;;;;5043535;28;20217;-69
2022/11/28 11:04:22;;;;;;;;;;;4.00;99.90;;;;;;5038807;28;19989;-69
2022/11/28 11:06:57;;;;;;;;;;;4.00;99.90;;;;;;5033813;28;20019;-69
2022/11/28 11:09:25;;;;;;;;;;;4.10;99.90;;;;;;5069173;27;19986;-70
2022/11/28 11:12:00;;;;;;;;;;;4.10;99.90;;;;;;5042607;28;19928;-69
2022/11/28 11:14:33;;;;;;;;;;;4.10;99.90;;;;;;5038931;28;20674;-69
2022/11/28 11:17:03;;;;;;;;;;;4.10;99.90;;;;;;5029655;28;20185;-69
2022/11/28 11:19:37;;;;;;;;;;;4.10;99.90;;;;;;5037895;28;19940;-69
2022/11/28 11:22:06;;;;;;;;;;;4.10;99.90;;;;;;5037474;28;20462;-70
2022/11/28 11:24:37;;;;;;;;;;;4.10;99.90;;;;;;5030584;28;19936;-70
2022/11/28 11:27:07;;;;;;;;;;;4.10;99.90;;;;;;5029798;28;20031;-69
2022/11/28 11:29:35;;;;;;;;;;;4.10;99.90;;;;;;5038614;28;19928;-70
2022/11/28 11:32:05;;;;;;;;;;;4.10;99.90;;;;;;5067964;27;19935;-69
2022/11/28 11:34:49;;;;;;;;;;;4.20;99.90;;;;;;5040920;28;20090;-69
2022/11/28 11:37:35;;;;;;;;;;;4.10;99.90;;;;;;5036805;28;19928;-69
2022/11/28 11:40:17;;;;;;;;;;;4.10;99.90;;;;;;5037986;28;20704;-70
2022/11/28 11:42:51;;;;;;;;;;;4.10;99.90;;;;;;5035427;28;19936;-71
2022/11/28 11:45:39;;;;;;;;;;;4.10;99.90;;;;;;5040372;28;19936;-70
2022/11/28 11:48:09;;;;;;;;;;;4.20;99.90;;;;;;5018974;28;19929;-71
2022/11/28 11:50:40;;;;;;;;;;;4.20;99.90;;;;;;5028708;28;19929;-71
2022/11/28 11:53:12;;;;;;;;;;;4.20;99.90;;;;;;5047392;28;19938;-69
2022/11/28 11:55:46;;;;;;;;;;;4.20;99.90;;;;;;5039786;28;20389;-69
2022/11/28 11:58:18;;;;;;;;;;;4.20;99.90;;;;;;5030327;28;20245;-70
2022/11/28 12:00:46;;;;;;;;;;;4.20;99.90;;;;;;5043225;28;19935;-70
2022/11/28 12:03:19;;;;;;;;;;;4.30;99.90;;;;;;5040240;28;20754;-70
2022/11/28 12:05:49;;;;;;;;;;;4.30;99.90;;;;;;5036905;28;19928;-70
2022/11/28 12:08:23;;;;;;;;;;;4.30;99.90;;;;;;5036287;28;20118;-69
2022/11/28 12:10:53;;;;;;;;;;;4.30;99.90;;;;;;5045782;28;19995;-71
2022/11/28 12:13:24;;;;;;;;;;;4.30;99.90;;;;;;5035144;28;20418;-70
2022/11/28 12:15:58;;;;;;;;;;;4.30;99.90;;;;;;5054761;28;20157;-70
2022/11/28 12:18:31;;;;;;;;;;;4.30;99.90;;;;;;5047405;28;19929;-71
2022/11/28 12:21:05;;;;;;;;;;;4.30;99.90;;;;;;5056054;28;20146;-70
2022/11/28 12:23:39;;;;;;;;;;;4.30;99.90;;;;;;5041415;28;19933;-70
2022/11/28 12:26:08;;;;;;;;;;;4.30;99.90;;;;;;5042382;28;19928;-70
2022/11/28 12:28:49;;;;;;;;;;;4.30;99.90;;;;;;5026155;28;20640;-71
2022/11/28 12:31:21;;;;;;;;;;;4.40;99.90;;;;;;5049017;28;19928;-70
2022/11/28 12:33:58;;;;;;;;;;;4.40;99.90;;;;;;5043022;28;20462;-70
2022/11/28 12:36:33;;;;;;;;;;;4.40;99.90;;;;;;5042150;28;20173;-70
2022/11/28 12:39:17;;;;;;;;;;;4.40;99.90;;;;;;5032592;28;19932;-70
2022/11/28 12:41:56;;;;;;;;;;;4.40;99.90;;;;;;5037347;28;20159;-70
2022/11/28 12:44:33;;;;;;;;;;;4.40;99.90;;;;;;5033072;28;20013;-70
2022/11/28 12:47:05;;;;;;;;;;;4.50;99.90;;;;;;5034304;28;20405;-70
2022/11/28 12:49:38;;;;;;;;;;;4.50;99.90;;;;;;5034858;28;20406;-70
2022/11/28 12:52:13;;;;;;;;;;;4.50;99.90;;;;;;5037757;28;19995;-70
2022/11/28 12:54:54;;;;;;;;;;;4.50;99.90;;;;;;5043868;28;19935;-70
2022/11/28 12:57:24;;;;;;;;;;;4.50;99.90;;;;;;5029110;28;20023;-69
2022/11/28 12:59:57;;;;;;;;;;;4.50;99.90;;;;;;5042403;28;20036;-70
2022/11/28 13:02:27;;;;;;;;;;;4.60;99.90;;;;;;5046275;27;19986;-70
2022/11/28 13:05:09;;;;;;;;;;;4.60;99.90;;;;;;5045480;28;19932;-70
2022/11/28 13:07:42;;;;;;;;;;;4.60;99.90;;;;;;5054536;28;19982;-70
2022/11/28 13:10:12;;;;;;;;;;;4.60;99.90;;;;;;5035536;28;20155;-70
2022/11/28 13:12:47;;;;;;;;;;;4.60;99.90;;;;;;5049867;28;20115;-71
2022/11/28 13:15:20;;;;;;;;;;;4.60;99.90;;;;;;5025813;28;19928;-71
2022/11/28 13:17:50;;;;;;;;;;;4.60;99.90;;;;;;5038907;28;20140;-70
2022/11/28 13:20:21;;;;;;;;;;;4.60;99.90;;;;;;5040815;28;20709;-70
2022/11/28 13:23:02;;;;;;;;;;;4.60;99.90;;;;;;5030227;28;20000;-70
2022/11/28 13:25:37;;;;;;;;;;;4.60;99.90;;;;;;5036881;28;20416;-71
2022/11/28 13:28:11;;;;;;;;;;;4.70;99.90;;;;;;5030737;28;20385;-70
2022/11/28 13:30:44;;;;;;;;;;;4.70;99.90;;;;;;5037089;28;20097;-69
2022/11/28 13:33:24;;;;;;;;;;;4.70;99.90;;;;;;5033814;28;20250;-70
2022/11/28 13:35:55;;;;;;;;;;;4.70;99.90;;;;;;5031628;28;19964;-70
2022/11/28 13:38:29;;;;;;;;;;;4.70;99.90;;;;;;5027838;28;20642;-70
2022/11/28 13:41:03;;;;;;;;;;;4.70;99.90;;;;;;5039781;28;19985;-70
2022/11/28 13:43:39;;;;;;;;;;;4.70;99.90;;;;;;5037221;28;20414;-70
2022/11/28 13:46:12;;;;;;;;;;;4.70;99.90;;;;;;5032070;28;20451;-70
2022/11/28 13:49:00;;;;;;;;;;;4.80;99.90;;;;;;5030766;28;20226;-70
2022/11/28 13:51:31;;;;;;;;;;;4.80;99.90;;;;;;5034271;28;19990;-70
2022/11/28 13:54:17;;;;;;;;;;;4.80;99.90;;;;;;5047007;28;19928;-70
2022/11/28 13:57:03;;;;;;;;;;;4.80;99.90;;;;;;5032433;28;19928;-70
2022/11/28 13:59:30;;;;;;;;;;;4.80;99.90;;;;;;5035766;28;19939;-70
2022/11/28 14:02:00;;;;;;;;;;;4.80;99.90;;;;;;5034079;28;19928;-70
2022/11/28 14:04:29;;;;;;;;;;;4.70;99.90;;;;;;5038929;28;19939;-70
2022/11/28 14:07:02;;;;;;;;;;;4.80;99.90;;;;;;5033501;28;20648;-71
2022/11/28 14:09:34;;;;;;;;;;;4.80;99.90;;;;;;5045227;28;19933;-70
2022/11/28 14:12:07;;;;;;;;;;;4.80;99.90;;;;;;5042368;28;20236;-70
2022/11/28 14:14:40;;;;;;;;;;;4.80;99.90;;;;;;5038880;28;19929;-71
2022/11/28 14:17:15;;;;;;;;;;;4.80;99.90;;;;;;5030452;28;20034;-71
2022/11/28 14:19:50;;;;;;;;;;;4.90;99.90;;;;;;5032449;28;20031;-70
2022/11/28 14:22:27;;;;;;;;;;;4.90;99.90;;;;;;5046314;28;19929;-70
2022/11/28 14:24:56;;;;;;;;;;;4.90;99.90;;;;;;5043870;28;20196;-70
2022/11/28 14:27:27;;;;;;;;;;;4.90;99.90;;;;;;5024448;28;19928;-70
2022/11/28 14:29:58;;;;;;;;;;;4.90;99.90;;;;;;5035102;28;19958;-70
2022/11/28 14:32:34;;;;;;;;;;;4.90;99.90;;;;;;5068515;27;20348;-70
2022/11/28 14:35:04;;;;;;;;;;;4.90;99.90;;;;;;5036240;28;20226;-70
2022/11/28 14:37:58;;;;;;;;;;;4.90;99.90;;;;;;5070535;27;19928;-70
2022/11/28 14:40:52;;;;;;;;;;;4.90;99.90;;;;;;5068719;27;19935;-70
2022/11/28 14:43:27;;;;;;;;;;;5.00;99.90;;;;;;5027958;28;19944;-71
2022/11/28 14:46:09;;;;;;;;;;;5.00;99.90;;;;;;5072994;27;20074;-70
2022/11/28 14:48:40;;;;;;;;;;;5.00;99.90;;;;;;5064241;27;20405;-70
2022/11/28 14:51:08;;;;;;;;;;;5.00;99.90;;;;;;5041694;28;19979;-70
2022/11/28 14:53:44;;;;;;;;;;;5.00;99.90;;;;;;5040152;28;19928;-69
2022/11/28 14:56:22;;;;;;;;;;;5.00;99.90;;;;;;5040846;28;19928;-69
2022/11/28 14:58:51;;;;;;;;;;;5.00;99.90;;;;;;5039629;28;19935;-69
2022/11/28 15:01:25;;;;;;;;;;;5.00;99.90;;;;;;5042566;28;20581;-69
2022/11/28 15:03:57;;;;;;;;;;;5.00;99.90;;;;;;5025903;28;20288;-69